• Join FlightAware (Why Join?)
  • Login
  • US Flag 
04:02PM EDT


 

Airport Tracker/Info


-or-


 

Live Flight TrackerFlight Track Log ✈ F-HPJG ✈ 03-May-2013 ✈ LFPG / CDG - FAOR / JNB

Flight Track Log - Related Links

Times and Time Zones

All times are in EDT time to prevent confusion due to time zone crossing. See the F-HPJG flight status page for this flight to view local times or setup timezone preferences in your user account.

Time Position Orientation Groundspeed Altitude Reporting Facility
EDT Latitude Longitude Course Direction KTS MPH feet Rate Location/Type
05:51PM 48.9970 2.5750 266° West 141 162 200  Level FlightAware
05:51PM 48.9962 2.5642 264° West 164 189 200 1,080 Level FlightAware ADS-B
05:51PM 48.9953 2.5471 265° West 159 183 600 1,560 Climbing FlightAware ADS-B
05:51PM 48.9946 2.5299 266° West 154 177 1,000 1,560 Climbing FlightAware ADS-B
05:51PM 48.9942 2.5215 266° West 154 177 1,200 1,260 Climbing FlightAware ADS-B
05:52PM 48.9933 2.5050 265° West 157 181 1,500 1,080 Climbing FlightAware ADS-B
05:52PM 48.9922 2.4869 265° West 162 186 1,800 1,080 Climbing FlightAware ADS-B
05:52PM 48.9912 2.4692 265° West 168 193 2,100 1,560 Climbing FlightAware ADS-B
05:52PM 48.9903 2.4510 266° West 169 194 2,600 1,980 Climbing FlightAware ADS-B
05:53PM 48.9894 2.4330 266° West 168 193 3,100 1,740 Climbing FlightAware ADS-B
05:53PM 48.9884 2.4148 265° West 175 201 3,500 1,080 Climbing FlightAware ADS-B
05:53PM 48.9873 2.3944 265° West 196 226 3,700 660 Climbing FlightAware ADS-B
05:53PM 48.9866 2.3797 266° West 212 244 3,800 720 Climbing FlightAware ADS-B
05:54PM 48.9854 2.3560 266° West 234 269 4,000 960 Climbing FlightAware ADS-B
05:54PM 48.9841 2.3296 266° West 255 293 4,300 1,500 Climbing FlightAware ADS-B
05:54PM 48.9825 2.3016 265° West 263 303 4,800 2,280 Climbing FlightAware ADS-B
05:54PM 48.9808 2.2731 265° West 268 308 5,500 2,880 Climbing FlightAware ADS-B
05:55PM 48.9796 2.2537 265° West 270 311 6,000 2,760 Climbing FlightAware ADS-B
05:55PM 48.9775 2.2246 264° West 274 315 6,700 2,520 Climbing FlightAware ADS-B
05:55PM 48.9757 2.2009 263° West 277 319 7,200 2,580 Climbing FlightAware ADS-B
05:55PM 48.9749 2.1932 261° West 278 320 7,400 2,640 Climbing FlightAware ADS-B
05:55PM 48.9735 2.1838 257° West 280 322 7,600 2,400 Climbing FlightAware ADS-B
05:55PM 48.9714 2.1747 251° West 282 325 7,800 1,980 Climbing FlightAware ADS-B
05:55PM 48.9693 2.1678 245° Southwest 284 327 7,900 2,520 Climbing FlightAware ADS-B
05:55PM 48.9673 2.1625 240° Southwest 286 329 8,100 2,220 Climbing FlightAware ADS-B
05:55PM 48.9636 2.1543 236° Southwest 288 331 8,200 2,100 Climbing FlightAware ADS-B
05:56PM 48.9550 2.1418 224° Southwest 290 334 8,600 3,000 Climbing FlightAware ADS-B
05:56PM 48.9508 2.1375 214° Southwest 291 335 8,800 3,420 Climbing FlightAware ADS-B
05:56PM 48.9466 2.1341 208° Southwest 291 335 9,000 2,520 Climbing FlightAware ADS-B
05:56PM 48.9426 2.1317 201° Southwest 292 336 9,100 1,980 Climbing FlightAware ADS-B
05:56PM 48.9386 2.1299 197° South 293 337 9,200 1,680 Climbing FlightAware ADS-B
05:56PM 48.9342 2.1285 192° South 296 341 9,300 1,680 Climbing FlightAware ADS-B
05:56PM 48.9300 2.1279 186° South 298 343 9,400 1,680 Climbing FlightAware ADS-B
05:56PM 48.9236 2.1280 180° South 299 344 9,500 2,220 Climbing FlightAware ADS-B
05:57PM 48.8815 2.1334 175° South 307 353 10,700 1,860 Climbing FlightAware ADS-B
05:57PM 48.8366 2.1400 175° South 337 388 11,400 1,320 Climbing FlightAware ADS-B
05:58PM 48.7843 2.1471 175° South 368 423 12,100 1,140 Climbing FlightAware ADS-B
05:58PM 48.7308 2.1536 175° South 396 456 12,600 1,500 Climbing FlightAware ADS-B
05:59PM 48.6714 2.1614 175° South 409 471 13,700 2,220 Climbing FlightAware ADS-B
05:59PM 48.6128 2.1687 175° South 416 479 14,900 2,460 Climbing FlightAware ADS-B
06:00PM 48.4797 2.1985 172° South 417 480 17,900 2,340 Climbing FlightAware ADS-B
06:01PM 48.4203 2.2138 170° South 430 495 18,800 1,860 Climbing FlightAware ADS-B
06:01PM 48.3605 2.2294 170° South 436 502 19,800 1,980 Climbing FlightAware ADS-B
06:02PM 48.2990 2.2455 170° South 441 507 20,900 1,860 Climbing FlightAware ADS-B
06:02PM 48.2420 2.2600 170° South 442 509 21,700 1,560 Climbing FlightAware
06:02PM 48.2218 2.2657 169° South 446 513 21,900 1,440 Climbing FlightAware ADS-B
06:03PM 48.1520 2.2840 170° South 458 527 22,800 1,620 Climbing FlightAware
06:04PM 48.0680 2.3050 171° South 463 533 24,000 1,620 Climbing FlightAware
06:04PM 47.9720 2.3300 170° South 472 543 25,100 1,440 Climbing FlightAware
06:05PM 47.8840 2.3540 170° South 477 549 26,100 1,380 Climbing FlightAware
06:06PM 47.7960 2.3770 170° South 484 557 27,000 1,260 Climbing FlightAware
06:07PM 47.6980 2.4020 170° South 491 565 27,900 1,200 Climbing FlightAware
06:07PM 47.6080 2.4260 170° South 496 571 28,700 1,680 Climbing FlightAware
06:08PM 47.5040 2.4530 170° South 486 559 30,300 1,920 Climbing FlightAware
06:09PM 47.4160 2.4750 170° South 481 554 31,500 1,560 Climbing FlightAware
06:09PM 47.3310 2.4970 170° South 477 549 32,400 900 Climbing FlightAware
06:10PM 47.2340 2.5220 170° South 489 563 32,800 840 Climbing FlightAware
06:11PM 47.1460 2.5450 170° South 487 560 33,600 1,080 Climbing FlightAware
06:11PM 47.0430 2.5710 170° South 489 563 34,400 900 Climbing FlightAware
06:12PM 46.9540 2.5930 170° South 490 564 34,900 900 Climbing FlightAware
06:13PM 46.8650 2.6160 170° South 485 558 35,600 900 Climbing FlightAware
06:13PM 46.7810 2.6370 170° South 487 560 36,100 840 Climbing FlightAware
06:14PM 46.6740 2.6640 170° South 484 557 36,800 600 Climbing FlightAware
06:15PM 46.5760 2.6880 170° South 490 564 37,000 120 Climbing FlightAware
06:16PM 46.4870 2.7110 170° South 494 568 37,000  Level FlightAware
06:16PM 46.3970 2.7330 170° South 493 567 37,000  Level FlightAware
06:17PM 46.2930 2.7590 170° South 492 566 37,000  Level FlightAware
06:18PM 46.2030 2.7810 170° South 493 567 37,000  Level FlightAware
06:18PM 46.1060 2.8050 170° South 493 567 37,000  Level FlightAware
06:19PM 46.0160 2.8270 170° South 494 568 37,000  Level FlightAware
06:20PM 45.9270 2.8480 171° South 492 566 37,000  Level FlightAware
06:21PM 45.8230 2.8740 170° South 493 567 37,000  Level FlightAware
06:21PM 45.7340 2.8950 171° South 492 566 37,000  Level FlightAware
06:22PM 45.6300 2.9200 170° South 492 566 37,000  Level FlightAware
06:23PM 45.5420 2.9420 170° South 492 566 37,000  Level FlightAware
06:23PM 45.4520 2.9630 171° South 492 566 37,000  Level FlightAware
06:24PM 45.3630 2.9840 171° South 492 566 37,000  Level FlightAware
06:25PM 45.2590 3.0090 170° South 491 565 37,000  Level FlightAware
06:25PM 45.1720 3.0300 170° South 491 565 37,000  Level FlightAware
06:26PM 45.0690 3.0540 171° South 488 562 37,000  Level FlightAware
06:27PM 44.9850 3.0740 170° South 489 563 37,000  Level FlightAware
06:28PM 44.8810 3.0980 171° South 489 563 37,000  Level FlightAware
06:28PM 44.7930 3.1300 166° South 493 567 37,000  Level FlightAware
06:29PM 44.7120 3.1890 153° Southeast 493 567 37,000  Level FlightAware
06:30PM 44.6230 3.2530 153° Southeast 492 566 37,000  Level FlightAware
06:30PM 44.5440 3.3080 154° Southeast 493 567 37,000  Level FlightAware
06:31PM 44.4490 3.3750 153° Southeast 491 565 37,000  Level FlightAware
06:32PM 44.3670 3.4320 154° Southeast 491 565 37,000  Level FlightAware
06:32PM 44.2860 3.4880 154° Southeast 491 565 37,000  Level FlightAware
06:33PM 44.1960 3.5460 155° Southeast 491 565 37,000  Level FlightAware
06:34PM 44.1120 3.5900 159° South 491 565 37,000  Level FlightAware
06:35PM 44.0130 3.6420 159° South 493 567 37,000  Level FlightAware
06:35PM 43.9290 3.6870 159° South 490 564 37,000  Level FlightAware
06:36PM 43.8450 3.7320 159° South 487 560 37,000  Level FlightAware
06:37PM 43.7470 3.7830 159° South 486 559 37,000  Level FlightAware
06:37PM 43.6630 3.8270 159° South 483 556 37,000  Level FlightAware
06:38PM 43.5720 3.8740 159° South 481 554 37,000  Level FlightAware
06:39PM 43.4900 3.9170 159° South 477 549 37,000  Level FlightAware
06:39PM 43.4070 3.9600 159° South 476 548 37,000  Level FlightAware
06:40PM 43.3130 4.0090 159° South 477 549 37,000  Level FlightAware
06:41PM 43.2310 4.0510 160° South 477 549 37,000  Level FlightAware
06:42PM 43.1370 4.1000 159° South 477 549 37,000  Level FlightAware
06:42PM 43.0540 4.1430 159° South 478 550 37,000  Level FlightAware
06:43PM 42.9700 4.1860 159° South 478 550 37,000  Level FlightAware
06:44PM 42.8790 4.2320 160° South 476 548 37,000  Level FlightAware
06:44PM 42.7960 4.2740 160° South 476 548 37,000  Level FlightAware
06:45PM 42.7050 4.3200 160° South 478 550 37,000  Level FlightAware
06:46PM 42.6210 4.3630 159° South 479 551 37,000  Level FlightAware
06:46PM 42.5380 4.4050 160° South 480 552 37,000  Level FlightAware
06:47PM 42.4430 4.4530 160° South 481 554 37,000  Level FlightAware
06:48PM 42.3600 4.4940 160° South 481 554 37,000  Level FlightAware
06:49PM 42.2970 4.5260 159° South 481 554 37,000  Level FlightAware
06:49PM 42.1930 4.5780 160° South 478 550 37,000  Level FlightAware
06:50PM 42.0850 4.6310 160° South 477 549 37,000  Level FlightAware
06:51PM 42.0080 4.6700 159° South 480 552 37,000  Level FlightAware
06:52PM 41.8590 4.7430 160° South 485 558 37,000  Level FlightAware
06:52PM 41.7740 4.7850 160° South 485 558 37,000  Level FlightAware
06:53PM 41.6910 4.8260 160° South 482 555 37,000  Level FlightAware
06:54PM 41.6000 4.8700 160° South 482 555 37,000  Level FlightAware
06:55PM 41.5150 4.9120 160° South 480 552 37,000  Level FlightAware
06:55PM 41.4200 4.9580 160° South 477 549 37,000  Level FlightAware
06:56PM 41.3070 5.0130 160° South 475 547 37,000  Level FlightAware
06:57PM 41.2250 5.0520 160° South 472 543 37,000  Level FlightAware
06:58PM 41.1420 5.0940 159° South 472 543 37,000  Level FlightAware
06:58PM 41.0650 5.1290 161° South 474 545 37,000  Level FlightAware
06:59PM 40.9580 5.1800 160° South 476 548 37,000  Level FlightAware
07:00PM 40.8730 5.2210 160° South 476 548 37,000  Level FlightAware
07:00PM 40.7930 5.2590 160° South 474 545 37,000  Level FlightAware
07:01PM 40.6820 5.3120 160° South 474 545 37,000  Level FlightAware
07:02PM 40.6120 5.3460 160° South 474 545 37,000  Level FlightAware
07:03PM 40.5420 5.3790 160° South 474 545 37,000  Level FlightAware
07:03PM 40.4540 5.4210 160° South 474 545 37,000  Level FlightAware
07:04PM 40.3840 5.4550 160° South 474 545 37,000  Level FlightAware
07:05PM 40.3140 5.4880 160° South 474 545 37,000  Level FlightAware
07:05PM 40.1630 5.5560 161° South 480 552 37,000  Level FlightAware
07:07PM 40.0180 5.6230 161° South 474 545 37,000  Level FlightAware
07:07PM 39.9180 5.6690 161° South 463 533 37,000  Level FlightAware
07:09PM 39.7220 5.7600 160° South 463 533 37,000  Level FlightAware
07:10PM 39.6380 5.7980 161° South 466 536 37,000  Level FlightAware
07:10PM 39.5450 5.8410 160° South 462 532 37,000  Level FlightAware
07:11PM 39.4650 5.8770 161° South 461 531 37,000  Level FlightAware
07:14PM 39.1840 6.0197 159° South  Level Estimated
07:14PM 39.1190 6.0030 159° South 462 532 37,000  Level FlightAware
07:15PM 39.0210 6.0270 169° South 471 542 37,000  Level FlightAware
07:15PM 38.9360 6.0470 170° South 472 543 37,000  Level FlightAware
07:16PM 38.8390 6.0710 169° South 462 532 37,000  Level FlightAware
07:17PM 38.7680 6.0880 169° South 462 532 37,000  Level FlightAware
07:17PM 38.6670 6.1110 170° South 473 544 37,000  Level FlightAware
07:18PM 38.5880 6.1310 169° South 472 543 37,000  Level FlightAware
07:19PM 38.5160 6.1490 169° South 472 543 37,000  Level FlightAware
07:20PM 38.4240 6.1710 169° South 472 543 37,000  Level FlightAware
07:20PM 38.3520 6.1900 168° South 472 543 37,000  Level FlightAware
07:22PM 38.1360 6.2370 170° South 473 544 37,000  Level FlightAware
07:22PM 38.0630 6.2550 169° South 473 544 37,000  Level FlightAware
07:23PM 37.9720 6.2780 169° South 473 544 37,000  Level FlightAware
07:24PM 37.8990 6.2960 169° South 473 544 37,000  Level FlightAware
07:24PM 37.8260 6.3140 169° South 473 544 37,000  Level FlightAware
07:25PM 37.7530 6.3320 169° South 473 544 37,000  Level FlightAware
07:26PM 37.6800 6.3500 169° South 473 544 37,000  Level FlightAware
07:27PM 37.5890 6.3720 169° South 473 544 37,000  Level FlightAware
07:27PM 37.5160 6.3900 169° South 473 544 37,000  Level FlightAware
07:28PM 37.4430 6.4080 169° South 473 544 37,000  Level FlightAware
07:29PM 37.3700 6.4260 169° South 473 544 37,000  Level FlightAware
07:29PM 37.2960 6.4440 169° South 473 544 37,000  Level FlightAware
07:30PM 37.2420 6.4570 169° South 473 544 37,000  Level FlightAware
07:30PM 37.1690 6.4750 169° South 473 544 37,000  Level FlightAware
07:33PM 36.9174 6.5976 159° South  Level Estimated
07:34PM 36.7984 6.6552 159° South  Level Estimated
07:35PM 36.6795 6.7127 159° South  Level Estimated
07:36PM 36.5605 6.7699 159° South  Level Estimated
07:37PM 36.4414 6.8270 159° South  Level Estimated
07:38PM 36.3224 6.8840 159° South  Level Estimated
07:39PM 36.2029 6.9409 159° South  Level Estimated
07:40PM 36.0835 6.9977 159° South  Level Estimated
07:41PM 35.9640 7.0542 159° South  Level Estimated
07:42PM 35.8444 7.1107 159° South  Level Estimated
07:43PM 35.7248 7.1669 159° South  Level Estimated
07:44PM 35.6053 7.2230 159° South  Level Estimated
07:45PM 35.4856 7.2789 159° South  Level Estimated
07:46PM 35.3660 7.3347 159° South  Level Estimated
07:47PM 35.2463 7.3902 159° South  Level Estimated
07:48PM 35.1266 7.4457 159° South  Level Estimated
07:49PM 35.0069 7.5009 159° South  Level Estimated
07:50PM 34.8872 7.5560 159° South  Level Estimated
07:51PM 34.7674 7.6109 159° South  Level Estimated
07:52PM 34.6476 7.6657 159° South  Level Estimated
07:53PM 34.5278 7.7203 159° South  Level Estimated
07:54PM 34.4080 7.7748 159° South  Level Estimated
07:55PM 34.2881 7.8291 159° South  Level Estimated
07:56PM 34.1682 7.8832 160° South  Level Estimated
07:57PM 34.0483 7.9372 160° South  Level Estimated
07:58PM 33.9283 7.9911 160° South  Level Estimated
07:59PM 33.8084 8.0448 160° South  Level Estimated
08:00PM 33.6884 8.0983 160° South  Level Estimated
08:01PM 33.5684 8.1517 160° South  Level Estimated
08:02PM 33.4484 8.2049 160° South  Level Estimated
08:03PM 33.3283 8.2580 160° South  Level Estimated
08:04PM 33.2082 8.3110 160° South  Level Estimated
08:05PM 33.0881 8.3638 160° South  Level Estimated
08:06PM 32.9680 8.4164 160° South  Level Estimated
08:07PM 32.8479 8.4690 160° South  Level Estimated
08:08PM 32.7277 8.5213 160° South  Level Estimated
08:09PM 32.6075 8.5736 160° South  Level Estimated
08:10PM 32.4873 8.6257 160° South  Level Estimated
08:11PM 32.3671 8.6776 160° South  Level Estimated
08:12PM 32.2468 8.7294 160° South  Level Estimated
08:13PM 32.1266 8.7811 160° South  Level Estimated
08:14PM 32.0063 8.8327 160° South  Level Estimated
08:15PM 31.8860 8.8841 160° South  Level Estimated
08:16PM 31.7656 8.9354 160° South  Level Estimated
08:17PM 31.6453 8.9865 160° South  Level Estimated
08:18PM 31.5249 9.0375 160° South  Level Estimated
08:19PM 31.4045 9.0884 160° South  Level Estimated
08:20PM 31.2841 9.1391 160° South  Level Estimated
08:21PM 31.1637 9.1897 160° South  Level Estimated
08:22PM 31.0432 9.2402 160° South  Level Estimated
08:23PM 30.9228 9.2906 160° South  Level Estimated
08:24PM 30.8023 9.3408 160° South  Level Estimated
08:25PM 30.6818 9.3910 160° South  Level Estimated
08:26PM 30.5613 9.4409 160° South  Level Estimated
08:27PM 30.4407 9.4908 160° South  Level Estimated
08:28PM 30.3201 9.5405 160° South  Level Estimated
08:29PM 30.1995 9.5901 160° South  Level Estimated
08:30PM 30.0789 9.6396 160° South  Level Estimated
08:31PM 29.9583 9.6890 160° South  Level Estimated
08:32PM 29.8377 9.7383 160° South  Level Estimated
08:33PM 29.7170 9.7874 161° South  Level Estimated
08:34PM 29.5963 9.8364 161° South  Level Estimated
08:35PM 29.4756 9.8853 161° South  Level Estimated
08:36PM 29.3549 9.9341 161° South  Level Estimated
08:37PM 29.2342 9.9828 161° South  Level Estimated
08:38PM 29.1134 10.0313 161° South  Level Estimated
08:39PM 28.9927 10.0798 161° South  Level Estimated
08:40PM 28.8719 10.1281 161° South  Level Estimated
08:41PM 28.7511 10.1763 161° South  Level Estimated
08:42PM 28.6303 10.2244 161° South  Level Estimated
08:43PM 28.5094 10.2724 161° South  Level Estimated
08:44PM 28.3886 10.3203 161° South  Level Estimated
08:45PM 28.2677 10.3680 161° South  Level Estimated
08:46PM 28.1468 10.4157 161° South  Level Estimated
08:47PM 28.0259 10.4633 161° South  Level Estimated
08:48PM 27.9050 10.5107 161° South  Level Estimated
08:49PM 27.7840 10.5581 161° South  Level Estimated
08:50PM 27.6631 10.6053 161° South  Level Estimated
08:51PM 27.5421 10.6524 161° South  Level Estimated
08:52PM 27.4211 10.6995 161° South  Level Estimated
08:53PM 27.3001 10.7464 161° South  Level Estimated
08:54PM 27.1791 10.7932 161° South  Level Estimated
08:55PM 27.0581 10.8399 161° South  Level Estimated
08:56PM 26.9370 10.8866 161° South  Level Estimated
08:57PM 26.8160 10.9331 161° South  Level Estimated
08:58PM 26.6949 10.9795 161° South  Level Estimated
08:59PM 26.5738 11.0258 161° South  Level Estimated
09:00PM 26.4527 11.0721 161° South  Level Estimated
09:01PM 26.3316 11.1182 161° South  Level Estimated
09:02PM 26.2104 11.1642 161° South  Level Estimated
09:03PM 26.0893 11.2102 161° South  Level Estimated
09:04PM 25.9681 11.2560 161° South  Level Estimated
09:05PM 25.8470 11.3018 161° South  Level Estimated
09:06PM 25.7258 11.3474 161° South  Level Estimated
09:07PM 25.6045 11.3930 161° South  Level Estimated
09:08PM 25.4833 11.4384 161° South  Level Estimated
09:09PM 25.3621 11.4838 161° South  Level Estimated
09:10PM 25.2408 11.5291 161° South  Level Estimated
09:11PM 25.1196 11.5743 161° South  Level Estimated
09:12PM 24.9983 11.6194 161° South  Level Estimated
09:13PM 24.8770 11.6644 161° South  Level Estimated
09:14PM 24.7557 11.7094 161° South  Level Estimated
09:15PM 24.6344 11.7542 161° South  Level Estimated
09:16PM 24.5131 11.7990 161° South  Level Estimated
09:17PM 24.3917 11.8436 161° South  Level Estimated
09:18PM 24.2704 11.8882 161° South  Level Estimated
09:19PM 24.1490 11.9327 162° South  Level Estimated
09:20PM 24.0276 11.9771 162° South  Level Estimated
09:21PM 23.9062 12.0215 162° South  Level Estimated
09:22PM 23.7848 12.0657 162° South  Level Estimated
09:23PM 23.6634 12.1099 162° South  Level Estimated
09:24PM 23.5420 12.1540 162° South  Level Estimated
09:25PM 23.4205 12.1980 162° South  Level Estimated
09:26PM 23.2990 12.2419 162° South  Level Estimated
09:27PM 23.1776 12.2857 162° South  Level Estimated
09:28PM 23.0561 12.3295 162° South  Level Estimated
09:29PM 22.9346 12.3732 162° South  Level Estimated
09:30PM 22.8131 12.4168 162° South  Level Estimated
09:31PM 22.6916 12.4603 162° South  Level Estimated
09:32PM 22.5700 12.5037 162° South  Level Estimated
09:33PM 22.4485 12.5471 162° South  Level Estimated
09:34PM 22.3270 12.5904 162° South  Level Estimated
09:35PM 22.2054 12.6336 162° South  Level Estimated
09:36PM 22.0838 12.6768 162° South  Level Estimated
09:37PM 21.9622 12.7198 162° South  Level Estimated
09:38PM 21.8406 12.7628 162° South  Level Estimated
09:39PM 21.7190 12.8058 162° South  Level Estimated
09:40PM 21.5974 12.8486 162° South  Level Estimated
09:41PM 21.4758 12.8914 162° South  Level Estimated
09:42PM 21.3541 12.9341 162° South  Level Estimated
09:43PM 21.2325 12.9768 162° South  Level Estimated
09:44PM 21.1108 13.0193 162° South  Level Estimated
09:45PM 20.9891 13.0618 162° South  Level Estimated
09:46PM 20.8675 13.1043 162° South  Level Estimated
09:47PM 20.7458 13.1466 162° South  Level Estimated
09:48PM 20.6240 13.1889 162° South  Level Estimated
09:49PM 20.5023 13.2311 162° South  Level Estimated
09:50PM 20.3806 13.2733 162° South  Level Estimated
09:51PM 20.2589 13.3154 162° South  Level Estimated
09:52PM 20.1371 13.3574 162° South  Level Estimated
09:53PM 20.0153 13.3994 162° South  Level Estimated
09:54PM 19.8936 13.4413 162° South  Level Estimated
09:55PM 19.7718 13.4831 162° South  Level Estimated
09:56PM 19.6500 13.5249 162° South  Level Estimated
09:57PM 19.5282 13.5666 162° South  Level Estimated
09:58PM 19.4064 13.6082 162° South  Level Estimated
09:59PM 19.2846 13.6498 162° South  Level Estimated
10:00PM 19.1628 13.6913 162° South  Level Estimated
10:01PM 19.0409 13.7328 162° South  Level Estimated
10:02PM 18.9191 13.7742 162° South  Level Estimated
10:03PM 18.7972 13.8155 162° South  Level Estimated
10:04PM 18.6754 13.8568 162° South  Level Estimated
10:05PM 18.5535 13.8980 162° South  Level Estimated
10:06PM 18.4316 13.9391 162° South  Level Estimated
10:07PM 18.3097 13.9803 162° South  Level Estimated
10:08PM 18.1878 14.0213 162° South  Level Estimated
10:09PM 18.0659 14.0623 162° South  Level Estimated
10:10PM 17.9440 14.1032 162° South  Level Estimated
10:11PM 17.8221 14.1441 162° South  Level Estimated
10:12PM 17.7002 14.1849 162° South  Level Estimated
10:13PM 17.5782 14.2256 162° South  Level Estimated
10:14PM 17.4563 14.2663 162° South  Level Estimated
10:15PM 17.3343 14.3070 162° South  Level Estimated
10:16PM 17.2124 14.3476 162° South  Level Estimated
10:17PM 17.0904 14.3881 162° South  Level Estimated
10:18PM 16.9684 14.4286 162° South  Level Estimated
10:19PM 16.8464 14.4691 162° South  Level Estimated
10:20PM 16.7244 14.5094 162° South  Level Estimated
10:21PM 16.6024 14.5498 162° South  Level Estimated
10:22PM 16.4804 14.5900 162° South  Level Estimated
10:23PM 16.3584 14.6303 162° South  Level Estimated
10:24PM 16.2364 14.6705 162° South  Level Estimated
10:25PM 16.1143 14.7106 162° South  Level Estimated
10:26PM 15.9923 14.7507 162° South  Level Estimated
10:27PM 15.8702 14.7907 162° South  Level Estimated
10:28PM 15.7482 14.8307 163° South  Level Estimated
10:29PM 15.6261 14.8706 163° South  Level Estimated
10:30PM 15.5041 14.9105 163° South  Level Estimated
10:31PM 15.3820 14.9503 163° South  Level Estimated
10:32PM 15.2599 14.9901 163° South  Level Estimated
10:33PM 15.1378 15.0299 163° South  Level Estimated
10:34PM 15.0157 15.0696 163° South  Level Estimated
10:35PM 14.8936 15.1093 163° South  Level Estimated
10:36PM 14.7715 15.1489 163° South  Level Estimated
10:37PM 14.6494 15.1884 163° South  Level Estimated
10:38PM 14.5272 15.2280 163° South  Level Estimated
10:39PM 14.4051 15.2674 163° South  Level Estimated
10:40PM 14.2830 15.3069 163° South  Level Estimated
10:41PM 14.1608 15.3463 163° South  Level Estimated
10:42PM 14.0386 15.3856 163° South  Level Estimated
10:43PM 13.9165 15.4249 163° South  Level Estimated
10:44PM 13.7943 15.4642 163° South  Level Estimated
10:45PM 13.6721 15.5034 163° South  Level Estimated
10:46PM 13.5500 15.5426 163° South  Level Estimated
10:47PM 13.4278 15.5818 163° South  Level Estimated
10:48PM 13.3056 15.6209 163° South  Level Estimated
10:49PM 13.1834 15.6599 163° South  Level Estimated
10:50PM 13.0612 15.6990 163° South  Level Estimated
10:51PM 12.9390 15.7380 163° South  Level Estimated
10:52PM 12.8168 15.7769 163° South  Level Estimated
10:53PM 12.6946 15.8158 163° South  Level Estimated
10:54PM 12.5723 15.8547 163° South  Level Estimated
10:55PM 12.4501 15.8935 163° South  Level Estimated
10:56PM 12.3279 15.9323 163° South  Level Estimated
10:57PM 12.2056 15.9711 163° South  Level Estimated
10:58PM 12.0834 16.0098 163° South  Level Estimated
10:59PM 11.9611 16.0485 163° South  Level Estimated
11:00PM 11.8389 16.0872 163° South  Level Estimated
11:01PM 11.7166 16.1258 163° South  Level Estimated
11:02PM 11.5943 16.1644 163° South  Level Estimated
11:03PM 11.4721 16.2030 163° South  Level Estimated
11:04PM 11.3498 16.2415 163° South  Level Estimated
11:05PM 11.2275 16.2800 163° South  Level Estimated
11:06PM 11.1052 16.3185 163° South  Level Estimated
11:07PM 10.9829 16.3569 163° South  Level Estimated
11:08PM 10.8606 16.3953 163° South  Level Estimated
11:09PM 10.7383 16.4336 163° South  Level Estimated
11:10PM 10.6160 16.4720 163° South  Level Estimated
11:11PM 10.4937 16.5103 163° South  Level Estimated
11:12PM 10.3714 16.5485 163° South  Level Estimated
11:13PM 10.2491 16.5868 163° South  Level Estimated
11:14PM 10.1267 16.6250 163° South  Level Estimated
11:15PM 10.0044 16.6632 163° South  Level Estimated
11:16PM 9.8821 16.7013 163° South  Level Estimated
11:17PM 9.7597 16.7394 163° South  Level Estimated
11:18PM 9.6374 16.7775 163° South  Level Estimated
11:19PM 9.5150 16.8156 163° South  Level Estimated
11:20PM 9.3927 16.8536 163° South  Level Estimated
11:21PM 9.2703 16.8917 163° South  Level Estimated
11:22PM 9.1480 16.9297 163° South  Level Estimated
11:23PM 9.0256 16.9676 163° South  Level Estimated
11:24PM 8.9032 17.0056 163° South  Level Estimated
11:25PM 8.7809 17.0435 163° South  Level Estimated
11:26PM 8.6585 17.0814 163° South  Level Estimated
11:27PM 8.5361 17.1192 163° South  Level Estimated
11:28PM 8.4137 17.1571 163° South  Level Estimated
11:29PM 8.2914 17.1949 163° South  Level Estimated
11:30PM 8.1690 17.2327 163° South  Level Estimated
11:31PM 8.0466 17.2704 163° South  Level Estimated
11:32PM 7.9242 17.3082 163° South  Level Estimated
11:33PM 7.8018 17.3459 163° South  Level Estimated
11:34PM 7.6794 17.3836 163° South  Level Estimated
11:35PM 7.5570 17.4213 163° South  Level Estimated
11:36PM 7.4346 17.4589 163° South  Level Estimated
11:37PM 7.3122 17.4966 163° South  Level Estimated
11:38PM 7.1897 17.5342 163° South  Level Estimated
11:39PM 7.0673 17.5718 163° South  Level Estimated
11:40PM 6.9449 17.6094 163° South  Level Estimated
11:41PM 6.8225 17.6469 163° South  Level Estimated
11:42PM 6.7000 17.6845 163° South  Level Estimated
11:43PM 6.5776 17.7220 163° South  Level Estimated
11:44PM 6.4552 17.7595 163° South  Level Estimated
11:45PM 6.3327 17.7970 163° South  Level Estimated
11:46PM 6.2103 17.8344 163° South  Level Estimated
11:47PM 6.0879 17.8719 163° South  Level Estimated
11:48PM 5.9654 17.9093 163° South  Level Estimated
11:49PM 5.8430 17.9467 163° South  Level Estimated
11:50PM 5.7205 17.9841 163° South  Level Estimated
11:51PM 5.5981 18.0215 163° South  Level Estimated
11:52PM 5.4756 18.0589 163° South  Level Estimated
11:53PM 5.3532 18.0962 163° South  Level Estimated
11:54PM 5.2307 18.1335 163° South  Level Estimated
11:55PM 5.1082 18.1709 163° South  Level Estimated
11:56PM 4.9858 18.2082 163° South  Level Estimated
11:57PM 4.8633 18.2454 163° South  Level Estimated
11:58PM 4.7408 18.2827 163° South  Level Estimated
11:59PM 4.6184 18.3200 163° South  Level Estimated
12:00AM 4.4959 18.3572 163° South  Level Estimated
12:01AM 4.3734 18.3945 163° South  Level Estimated
12:02AM 4.2510 18.4317 163° South  Level Estimated
12:03AM 4.1285 18.4689 163° South  Level Estimated
12:04AM 4.0060 18.5061 163° South  Level Estimated
12:05AM 3.8835 18.5433 163° South  Level Estimated
12:06AM 3.7610 18.5805 163° South  Level Estimated
12:07AM 3.6386 18.6177 163° South  Level Estimated
12:08AM 3.5161 18.6548 163° South  Level Estimated
12:09AM 3.3936 18.6920 163° South  Level Estimated
12:10AM 3.2711 18.7291 163° South  Level Estimated
12:11AM 3.1486 18.7662 163° South  Level Estimated
12:12AM 3.0261 18.8034 163° South  Level Estimated
12:13AM 2.9036 18.8405 163° South  Level Estimated
12:14AM 2.7812 18.8776 163° South  Level Estimated
12:15AM 2.6587 18.9147 163° South  Level Estimated
12:16AM 2.5362 18.9518 163° South  Level Estimated
12:17AM 2.4137 18.9889 163° South  Level Estimated
12:18AM 2.2912 19.0259 163° South  Level Estimated
12:19AM 2.1687 19.0630 163° South  Level Estimated
12:20AM 2.0462 19.1001 163° South  Level Estimated
12:21AM 1.9237 19.1371 163° South  Level Estimated
12:22AM 1.8012 19.1742 163° South  Level Estimated
12:23AM 1.6787 19.2113 163° South  Level Estimated
12:24AM 1.5562 19.2483 163° South  Level Estimated
12:25AM 1.4337 19.2854 163° South  Level Estimated
12:26AM 1.3112 19.3224 163° South  Level Estimated
12:27AM 1.1887 19.3594 163° South  Level Estimated
12:28AM 1.0662 19.3965 163° South  Level Estimated
12:29AM 0.9437 19.4335 163° South  Level Estimated
12:30AM 0.8212 19.4705 163° South  Level Estimated
12:31AM 0.6987 19.5075 163° South  Level Estimated
12:32AM 0.5762 19.5445 163° South  Level Estimated
12:33AM 0.4536 19.5816 163° South  Level Estimated
12:34AM 0.3311 19.6186 163° South  Level Estimated
12:35AM 0.2086 19.6556 163° South  Level Estimated
12:36AM 0.0861 19.6926 163° South  Level Estimated
12:37AM -0.0364 19.7296 163° South  Level Estimated
12:38AM -0.1589 19.7667 163° South  Level Estimated
12:39AM -0.2814 19.8037 163° South  Level Estimated
12:40AM -0.4039 19.8407 163° South  Level Estimated
12:41AM -0.5264 19.8777 163° South  Level Estimated
12:42AM -0.6489 19.9147 163° South  Level Estimated
12:43AM -0.7715 19.9518 163° South  Level Estimated
12:44AM -0.8940 19.9888 163° South  Level Estimated
12:45AM -1.0165 20.0258 163° South  Level Estimated
12:46AM -1.1390 20.0628 163° South  Level Estimated
12:47AM -1.2615 20.0999 163° South  Level Estimated
12:48AM -1.3840 20.1369 163° South  Level Estimated
12:49AM -1.5065 20.1740 163° South  Level Estimated
12:50AM -1.6290 20.2110 163° South  Level Estimated
12:51AM -1.7515 20.2480 163° South  Level Estimated
12:52AM -1.8740 20.2851 163° South  Level Estimated
12:53AM -1.9965 20.3221 163° South  Level Estimated
12:54AM -2.1190 20.3592 163° South  Level Estimated
12:55AM -2.2415 20.3963 163° South  Level Estimated
12:56AM -2.3640 20.4334 163° South  Level Estimated
12:57AM -2.4865 20.4704 163° South  Level Estimated
12:58AM -2.6090 20.5075 163° South  Level Estimated
12:59AM -2.7315 20.5446 163° South  Level Estimated
01:00AM -2.8539 20.5817 163° South  Level Estimated
01:01AM -2.9764 20.6188 163° South  Level Estimated
01:02AM -3.0989 20.6560 163° South  Level Estimated
01:03AM -3.2214 20.6931 163° South  Level Estimated
01:04AM -3.3439 20.7302 163° South  Level Estimated
01:05AM -3.4664 20.7674 163° South  Level Estimated
01:06AM -3.5889 20.8045 163° South  Level Estimated
01:07AM -3.7113 20.8417 163° South  Level Estimated
01:08AM -3.8338 20.8789 163° South  Level Estimated
01:09AM -3.9563 20.9161 163° South  Level Estimated
01:10AM -4.0788 20.9533 163° South  Level Estimated
01:11AM -4.2013 20.9905 163° South  Level Estimated
01:12AM -4.3238 21.0277 163° South  Level Estimated
01:13AM -4.4462 21.0649 163° South  Level Estimated
01:14AM -4.5687 21.1022 163° South  Level Estimated
01:15AM -4.6912 21.1395 163° South  Level Estimated
01:16AM -4.8136 21.1767 163° South  Level Estimated
01:17AM -4.9361 21.2140 163° South  Level Estimated
01:18AM -5.0586 21.2513 163° South  Level Estimated
01:19AM -5.1810 21.2886 163° South  Level Estimated
01:20AM -5.3035 21.3260 163° South  Level Estimated
01:21AM -5.4259 21.3633 163° South  Level Estimated
01:22AM -5.5484 21.4007 163° South  Level Estimated
01:23AM -5.6708 21.4380 163° South  Level Estimated
01:24AM -5.7933 21.4754 163° South  Level Estimated
01:25AM -5.9157 21.5128 163° South  Level Estimated
01:26AM -6.0382 21.5502 163° South  Level Estimated
01:27AM -6.1606 21.5877 163° South  Level Estimated
01:28AM -6.2831 21.6251 163° South  Level Estimated
01:29AM -6.4055 21.6626 163° South  Level Estimated
01:30AM -6.5279 21.7001 163° South  Level Estimated
01:31AM -6.6504 21.7376 163° South  Level Estimated
01:32AM -6.7728 21.7751 163° South  Level Estimated
01:33AM -6.8952 21.8127 163° South  Level Estimated
01:34AM -7.0176 21.8503 163° South  Level Estimated
01:35AM -7.1401 21.8878 163° South  Level Estimated
01:36AM -7.2625 21.9255 163° South  Level Estimated
01:37AM -7.3849 21.9631 163° South  Level Estimated
01:38AM -7.5073 22.0007 163° South  Level Estimated
01:39AM -7.6297 22.0384 163° South  Level Estimated
01:40AM -7.7521 22.0761 163° South  Level Estimated
01:41AM -7.8745 22.1138 163° South  Level Estimated
01:42AM -7.9969 22.1516 163° South  Level Estimated
01:43AM -8.1193 22.1893 163° South  Level Estimated
01:44AM -8.2417 22.2271 163° South  Level Estimated
01:45AM -8.3641 22.2649 163° South  Level Estimated
01:46AM -8.4865 22.3027 163° South  Level Estimated
01:47AM -8.6088 22.3406 163° South  Level Estimated
01:48AM -8.7312 22.3785 163° South  Level Estimated
01:49AM -8.8536 22.4163 163° South  Level Estimated
01:50AM -8.9760 22.4543 163° South  Level Estimated
01:51AM -9.0983 22.4922 163° South  Level Estimated
01:52AM -9.2207 22.5302 163° South  Level Estimated
01:53AM -9.3430 22.5682 163° South  Level Estimated
01:54AM -9.4654 22.6062 163° South  Level Estimated
01:55AM -9.5877 22.6443 163° South  Level Estimated
01:56AM -9.7101 22.6824 163° South  Level Estimated
01:57AM -9.8324 22.7205 163° South  Level Estimated
01:58AM -9.9548 22.7586 163° South  Level Estimated
01:59AM -10.0771 22.7968 163° South  Level Estimated
02:00AM -10.1994 22.8350 163° South  Level Estimated
02:01AM -10.3217 22.8732 163° South  Level Estimated
02:02AM -10.4441 22.9115 163° South  Level Estimated
02:03AM -10.5664 22.9498 163° South  Level Estimated
02:04AM -10.6887 22.9881 163° South  Level Estimated
02:05AM -10.8110 23.0265 163° South  Level Estimated
02:06AM -10.9333 23.0648 163° South  Level Estimated
02:07AM -11.0556 23.1033 163° South  Level Estimated
02:08AM -11.1779 23.1417 163° South  Level Estimated
02:09AM -11.3001 23.1802 163° South  Level Estimated
02:10AM -11.4224 23.2187 163° South  Level Estimated
02:11AM -11.5447 23.2572 163° South  Level Estimated
02:12AM -11.6670 23.2958 163° South  Level Estimated
02:13AM -11.7892 23.3344 163° South  Level Estimated
02:14AM -11.9115 23.3731 163° South  Level Estimated
02:15AM -12.0337 23.4118 163° South  Level Estimated
02:16AM -12.1560 23.4505 163° South  Level Estimated
02:17AM -12.2782 23.4892 163° South  Level Estimated
02:18AM -12.4005 23.5280 163° South  Level Estimated
02:19AM -12.5227 23.5668 163° South  Level Estimated
02:20AM -12.6449 23.6057 163° South  Level Estimated
02:21AM -12.7672 23.6446 163° South  Level Estimated
02:22AM -12.8894 23.6835 163° South  Level Estimated
02:23AM -13.0116 23.7225 163° South  Level Estimated
02:24AM -13.1338 23.7615 163° South  Level Estimated
02:25AM -13.2560 23.8006 163° South  Level Estimated
02:26AM -13.3782 23.8396 163° South  Level Estimated
02:27AM -13.5004 23.8788 163° South  Level Estimated
02:28AM -13.6226 23.9179 163° South  Level Estimated
02:29AM -13.7447 23.9572 163° South  Level Estimated
02:30AM -13.8669 23.9964 163° South  Level Estimated
02:31AM -13.9890 24.0357 163° South  Level Estimated
02:32AM -14.1112 24.0750 163° South  Level Estimated
02:33AM -14.2334 24.1144 163° South  Level Estimated
02:34AM -14.3555 24.1538 163° South  Level Estimated
02:35AM -14.4776 24.1933 163° South  Level Estimated
02:36AM -14.5998 24.2328 163° South  Level Estimated
02:37AM -14.7219 24.2724 163° South  Level Estimated
02:38AM -14.8440 24.3119 163° South  Level Estimated
02:39AM -14.9661 24.3516 163° South  Level Estimated
02:40AM -15.0882 24.3913 163° South  Level Estimated
02:41AM -15.2103 24.4310 163° South  Level Estimated
02:42AM -15.3324 24.4708 163° South  Level Estimated
02:43AM -15.4545 24.5106 163° South  Level Estimated
02:44AM -15.5766 24.5505 163° South  Level Estimated
02:45AM -15.6986 24.5904 163° South  Level Estimated
02:46AM -15.8207 24.6303 163° South  Level Estimated
02:47AM -15.9427 24.6703 163° South  Level Estimated
02:48AM -16.0648 24.7104 162° South  Level Estimated
02:49AM -16.1868 24.7505 162° South  Level Estimated
02:50AM -16.3089 24.7907 162° South  Level Estimated
02:51AM -16.4309 24.8309 162° South  Level Estimated
02:52AM -16.5529 24.8711 162° South  Level Estimated
02:53AM -16.6749 24.9115 162° South  Level Estimated
02:54AM -16.7969 24.9518 162° South  Level Estimated
02:55AM -16.9189 24.9922 162° South  Level Estimated
02:56AM -17.0409 25.0327 162° South  Level Estimated
02:57AM -17.1629 25.0732 162° South  Level Estimated
02:58AM -17.2848 25.1138 162° South  Level Estimated
02:59AM -17.4068 25.1544 162° South  Level Estimated
03:00AM -17.5287 25.1951 162° South  Level Estimated
03:01AM -17.6507 25.2358 162° South  Level Estimated
03:02AM -17.7726 25.2766 162° South  Level Estimated
03:03AM -17.8945 25.3175 162° South  Level Estimated
03:04AM -18.0165 25.3584 162° South  Level Estimated
03:05AM -18.1384 25.3993 162° South  Level Estimated
03:06AM -18.2603 25.4404 162° South  Level Estimated
03:07AM -18.3822 25.4814 162° South  Level Estimated
03:08AM -18.5040 25.5226 162° South  Level Estimated
03:09AM -18.6259 25.5637 162° South  Level Estimated
03:10AM -18.7478 25.6050 162° South  Level Estimated
03:11AM -18.8696 25.6463 162° South  Level Estimated
03:12AM -18.9915 25.6877 162° South  Level Estimated
03:12AM -22.9250 26.0820 162° South 523 602 41,000  Level FlightAware
03:13AM -19.1133 25.7291 162° South  Level Estimated
03:13AM -23.0590 26.1440 157° South 525 604 41,000  Level FlightAware
03:14AM -23.1290 26.1780 156° South 525 604 41,000  Level FlightAware
03:15AM -23.2450 26.2300 158° South 526 605 41,000  Level FlightAware
03:15AM -23.3320 26.2710 157° South 525 604 41,000  Level FlightAware
03:16AM -23.4390 26.3200 157° South 525 604 41,000  Level FlightAware
03:17AM -23.5400 26.3680 156° South 525 604 41,000  Level FlightAware
03:18AM -23.6720 26.4290 157° South 527 606 41,000  Level FlightAware
03:18AM -23.7350 26.4580 157° South 527 606 41,000  Level FlightAware
03:19AM -23.8010 26.4890 157° South 525 604 41,000  Level FlightAware
03:20AM -23.9120 26.5420 156° South 528 608 41,000 -240 Level FlightAware
03:20AM -23.9930 26.5830 155° Southeast 525 604 40,700 -720 Descending FlightAware
03:21AM -24.0940 26.6320 156° South 529 609 40,000 -1,380 Descending FlightAware
03:22AM -24.1950 26.6820 156° South 532 612 38,700 -1,980 Descending FlightAware
03:23AM -24.3140 26.7410 156° South 526 605 36,900 -2,220 Descending FlightAware
03:23AM -24.4120 26.7890 156° South 530 610 35,000 -2,700 Descending FlightAware
03:24AM -24.5100 26.8380 156° South 531 611 33,100 -2,520 Descending FlightAware
03:25AM -24.6310 26.8980 156° South 527 606 31,100 -1,980 Descending FlightAware
03:26AM -24.7260 26.9450 156° South 517 595 29,800 -1,800 Descending FlightAware
03:26AM -24.8170 26.9900 156° South 505 581 28,600 -1,800 Descending FlightAware
03:27AM -24.8900 27.0270 155° Southeast 494 568 27,600 -1,680 Descending FlightAware
03:28AM -24.9900 27.0770 156° South 484 557 26,300 -1,620 Descending FlightAware
03:29AM -25.1020 27.1330 156° South 480 552 24,800 -1,680 Descending FlightAware
03:29AM -25.1740 27.1690 156° South 474 545 23,800 -1,860 Descending FlightAware
03:30AM -25.2730 27.2190 155° Southeast 471 542 22,200 -1,740 Descending FlightAware
03:31AM -25.3530 27.2590 156° South 460 529 21,200 -1,500 Descending FlightAware
03:32AM -25.4350 27.3000 156° South 448 516 20,100 -1,440 Descending FlightAware
03:32AM -25.5120 27.3390 155° Southeast 431 496 19,200 -1,020 Descending FlightAware
03:33AM -25.5830 27.3750 155° Southeast 401 461 18,800 -600 Descending FlightAware
03:34AM -25.6510 27.4100 155° Southeast 376 433 18,400 -900 Descending FlightAware
03:35AM -25.7400 27.4800 145° Southeast 366 421 17,300 -1,140 Descending FlightAware
03:35AM -25.7730 27.5410 121° Southeast 360 414 16,500 -1,440 Descending FlightAware
03:36AM -25.8140 27.6130 122° Southeast 350 403 15,300 -1,440 Descending FlightAware
03:37AM -25.8490 27.6760 122° Southeast 343 395 14,500 -1,020 Descending FlightAware
03:37AM -25.8850 27.7400 122° Southeast 333 383 13,900 -960 Descending FlightAware
03:38AM -25.9180 27.7990 122° Southeast 320 368 13,200 -1,200 Descending FlightAware
03:39AM -25.9530 27.8630 121° Southeast 316 364 12,200 -1,320 Descending FlightAware
03:39AM -25.9720 27.9030 118° Southeast 321 369 11,600 -1,140 Descending FlightAware
03:40AM -25.9690 27.9520 86° East 321 369 10,900 -1,440 Descending FlightAware
03:41AM -25.9590 28.0210 81° East 310 357 9,700 -1,680 Descending FlightAware
03:41AM -25.9530 28.0650 81° East 304 350 9,000 -840 Descending FlightAware
03:41AM -25.9480 28.0970 80° East 290 334 9,000  Level FlightAware
03:42AM -25.9450 28.1180 81° East 277 319 9,000  Level FlightAware
03:42AM -25.9400 28.1540 81° East 260 299 9,000  Level FlightAware
03:43AM -25.9350 28.1860 80° East 253 291 9,000 -240 Level FlightAware
03:43AM -25.9300 28.2220 81° East 232 267 8,800 -600 Descending FlightAware
03:44AM -25.9330 28.2560 96° East 219 252 8,400 -1,020 Descending FlightAware
03:44AM -25.9380 28.2830 102° East 217 250 7,900 -1,200 Descending FlightAware
03:44AM -25.9440 28.2920 127° Southeast 207 238 7,700 -600 Descending FlightAware
03:44AM -25.9610 28.3020 152° Southeast 186 214 7,600 -240 Descending FlightAware
03:45AM -25.9690 28.3050 161° South 182 209 7,600  Level FlightAware
03:45AM -25.9850 28.3040 183° South 175 201 7,600 120 Level FlightAware
03:45AM -26.0050 28.2980 195° South 174 200 7,700 -600 Climbing FlightAware
03:46AM -26.0430 28.2860 196° South 161 185 6,900 -900 Descending FlightAware
03:46AM -26.0500 28.2840 194° South 157 181 6,800 -720 Descending FlightAware
03:47AM -26.0740 28.2760 197° South 155 178 6,400 -720 Descending FlightAware
03:47AM -26.0910 28.2710 195° South 151 174 6,100 -780 Descending FlightAware
03:48AM -26.1100 28.2650 196° South 141 162 5,700 -720 Descending FlightAware
03:49AM -26.1460 28.2540 195° South 119 137 5,100 -660 Descending FlightAware